createdAt,value
2019-04-05T00:01:30.384Z,95.26
2019-04-05T00:03:57.873Z,95.20
2019-04-05T00:06:25.369Z,95.20
2019-04-05T00:08:52.849Z,95.14
2019-04-05T00:11:20.364Z,95.03
2019-04-05T00:13:47.921Z,94.88
2019-04-05T00:16:15.367Z,94.89
2019-04-05T00:18:42.807Z,94.73
2019-04-05T00:21:10.208Z,94.89
2019-04-05T00:23:37.763Z,94.94
2019-04-05T00:26:05.559Z,94.97
2019-04-05T00:28:33.008Z,94.76
2019-04-05T00:31:00.425Z,94.79
2019-04-05T00:33:28.013Z,94.80
2019-04-05T00:35:55.403Z,94.83
2019-04-05T00:38:22.802Z,94.73
2019-04-05T00:40:50.234Z,94.72
2019-04-05T00:43:17.628Z,94.84
2019-04-05T00:45:45.118Z,94.68
2019-04-05T00:48:12.528Z,94.67
2019-04-05T00:50:40.003Z,94.59
2019-04-05T00:53:07.514Z,94.52
2019-04-05T00:55:35.193Z,94.53
2019-04-05T00:58:02.660Z,94.56
2019-04-05T01:00:30.398Z,94.47
2019-04-05T01:02:57.792Z,94.22
2019-04-05T01:05:25.233Z,94.25
2019-04-05T01:07:52.628Z,94.28
2019-04-05T01:10:20.193Z,94.25
2019-04-05T01:12:47.575Z,94.18
2019-04-05T01:15:15.130Z,94.07
2019-04-05T01:17:43.123Z,94.17
2019-04-05T01:20:10.885Z,94.01
2019-04-05T01:22:38.882Z,94.18
2019-04-05T01:25:06.438Z,94.21
2019-04-05T01:27:34.509Z,93.85
2019-04-05T01:30:02.055Z,93.66
2019-04-05T01:32:29.930Z,93.70
2019-04-05T01:34:57.388Z,93.55
2019-04-05T01:37:25.113Z,93.60
2019-04-05T01:39:52.591Z,93.28
2019-04-05T01:42:20.094Z,93.25
2019-04-05T01:44:47.776Z,93.26
2019-04-05T01:47:20.873Z,93.35
2019-04-05T01:50:02.578Z,93.40
2019-04-05T01:52:30.094Z,93.58
2019-04-05T01:54:57.959Z,93.29
2019-04-05T01:57:25.384Z,93.26
2019-04-05T01:59:52.963Z,93.07
2019-04-05T02:02:20.553Z,92.96
2019-04-05T02:04:48.025Z,93.05
2019-04-05T02:07:15.738Z,93.11
2019-04-05T02:09:43.365Z,93.05
2019-04-05T02:12:10.955Z,93.38
2019-04-05T02:14:38.642Z,93.64
2019-04-05T02:17:10.398Z,93.55
2019-04-05T02:19:37.884Z,93.60
2019-04-05T02:22:05.665Z,93.68
2019-04-05T02:24:33.030Z,93.68
2019-04-05T02:27:00.512Z,93.63
2019-04-05T02:29:27.968Z,93.85
2019-04-05T02:31:55.698Z,93.77
2019-04-05T02:34:23.158Z,93.88
2019-04-05T02:36:50.607Z,93.76
2019-04-05T02:39:18.108Z,93.76
2019-04-05T02:41:45.849Z,93.86
2019-04-05T02:44:13.644Z,93.90
2019-04-05T02:46:42.779Z,93.89
2019-04-05T02:49:10.378Z,94.09
2019-04-05T02:51:38.515Z,94.26
2019-04-05T02:54:06.207Z,94.36
2019-04-05T02:56:35.600Z,94.14
2019-04-05T02:59:03.271Z,93.87
2019-04-05T03:01:32.054Z,94.13
2019-04-05T03:03:59.831Z,94.14
2019-04-05T03:06:28.084Z,93.99
2019-04-05T03:08:55.687Z,93.97
2019-04-05T03:11:26.745Z,93.93
2019-04-05T03:13:56.434Z,93.92
2019-04-05T03:16:40.424Z,93.90
2019-04-05T03:19:04.335Z,94.12
2019-04-05T03:21:32.905Z,94.45
2019-04-05T03:24:03.622Z,94.53
2019-04-05T03:26:34.195Z,94.51
2019-04-05T03:29:04.236Z,94.29
2019-04-05T03:31:31.784Z,94.28
2019-04-05T03:33:59.702Z,94.20
2019-04-05T03:36:27.505Z,94.21
2019-04-05T03:38:55.395Z,94.04
2019-04-05T03:41:23.025Z,94.16
2019-04-05T03:43:50.537Z,94.21
2019-04-05T03:46:18.215Z,94.17
2019-04-05T03:48:45.932Z,94.11
2019-04-05T03:51:13.375Z,94.20
2019-04-05T03:53:40.874Z,94.21
2019-04-05T03:56:08.423Z,94.09
2019-04-05T03:58:35.807Z,94.14
2019-04-05T04:01:03.448Z,94.25
2019-04-05T04:03:30.905Z,94.12
2019-04-05T04:05:59.023Z,93.86
2019-04-05T04:08:26.448Z,93.99
2019-04-05T04:10:54.581Z,93.96
2019-04-05T04:13:22.165Z,93.90
2019-04-05T04:15:50.382Z,93.90
2019-04-05T04:18:17.863Z,94.03
2019-04-05T04:20:47.983Z,94.02
2019-04-05T04:23:15.404Z,93.83
2019-04-05T04:25:42.899Z,93.83
2019-04-05T04:28:10.462Z,93.57
2019-04-05T04:30:37.967Z,93.70
2019-04-05T04:33:05.785Z,93.74
2019-04-05T04:35:33.490Z,93.94
2019-04-05T04:38:01.063Z,93.63
2019-04-05T04:40:28.804Z,93.43
2019-04-05T04:42:56.231Z,93.45
2019-04-05T04:45:23.622Z,93.54
2019-04-05T04:47:51.061Z,94.27
2019-04-05T04:50:19.151Z,93.89
2019-04-05T04:52:46.982Z,93.76
2019-04-05T04:55:14.463Z,93.74
2019-04-05T04:57:42.007Z,93.58
2019-04-05T05:00:09.772Z,93.31
2019-04-05T05:02:37.223Z,93.36
2019-04-05T05:05:05.883Z,93.37
2019-04-05T05:07:33.507Z,93.40
2019-04-05T05:10:03.320Z,93.46
2019-04-05T05:12:30.378Z,93.24
2019-04-05T05:14:57.908Z,93.35
2019-04-05T05:17:37.465Z,93.13
2019-04-05T05:19:54.850Z,93.22
2019-04-05T05:22:22.779Z,93.23
2019-04-05T05:24:53.013Z,92.91
2019-04-05T05:27:20.871Z,93.01
2019-04-05T05:29:48.273Z,93.44
2019-04-05T05:32:15.828Z,93.05
2019-04-05T05:34:43.523Z,93.28
2019-04-05T05:37:11.053Z,93.07
2019-04-05T05:39:38.474Z,93.03
2019-04-05T05:42:05.928Z,92.85
2019-04-05T05:44:33.325Z,92.88
2019-04-05T05:47:00.778Z,92.66
2019-04-05T05:49:28.148Z,92.21
2019-04-05T05:51:55.854Z,92.23
2019-04-05T05:54:23.372Z,92.33
2019-04-05T05:56:50.972Z,92.26
2019-04-05T05:59:18.539Z,92.17
2019-04-05T06:01:46.126Z,92.09
2019-04-05T06:04:13.892Z,92.08
2019-04-05T06:06:41.431Z,92.01
2019-04-05T06:09:09.051Z,91.79
2019-04-05T06:11:36.652Z,92.22
2019-04-05T06:14:04.271Z,92.10
2019-04-05T06:16:31.832Z,92.17
2019-04-05T06:18:59.492Z,92.27
2019-04-05T06:21:27.212Z,92.15
2019-04-05T06:23:54.773Z,92.32
2019-04-05T06:26:22.295Z,92.08
2019-04-05T06:28:50.093Z,91.69
2019-04-05T06:31:17.852Z,91.69
2019-04-05T06:33:45.471Z,92.09
2019-04-05T06:36:13.072Z,91.93
2019-04-05T06:38:40.671Z,91.85
2019-04-05T06:41:08.272Z,91.77
2019-04-05T06:43:36.193Z,92.03
2019-04-05T06:46:03.878Z,91.98
2019-04-05T06:48:31.752Z,91.76
2019-04-05T06:50:59.292Z,91.74
2019-04-05T06:53:26.912Z,91.61
2019-04-05T06:55:54.452Z,91.97
2019-04-05T06:58:28.906Z,91.93
2019-04-05T07:00:57.204Z,91.69
2019-04-05T07:03:21.593Z,91.65
2019-04-05T07:05:49.211Z,91.92
2019-04-05T07:08:18.375Z,92.29
2019-04-05T07:10:46.193Z,92.42
2019-04-05T07:13:13.911Z,92.51
2019-04-05T07:15:41.472Z,92.20
2019-04-05T07:18:09.172Z,92.06
2019-04-05T07:20:36.793Z,92.20
2019-04-05T07:23:04.615Z,92.08
2019-04-05T07:25:32.231Z,92.50
2019-04-05T07:27:59.971Z,92.57
2019-04-05T07:30:28.945Z,92.54
2019-04-05T07:32:56.806Z,92.32
2019-04-05T07:35:33.289Z,92.18
2019-04-05T07:37:54.012Z,92.02
2019-04-05T07:40:22.456Z,91.55
2019-04-05T07:42:50.252Z,91.87
2019-04-05T07:45:17.811Z,91.73
2019-04-05T07:47:45.398Z,91.93
2019-04-05T07:50:13.170Z,91.94
2019-04-05T07:52:40.792Z,92.12
2019-04-05T07:55:08.752Z,91.72
2019-04-05T07:57:36.312Z,91.96
2019-04-05T08:00:07.113Z,91.91
2019-04-05T08:02:34.737Z,91.98
2019-04-05T08:05:02.280Z,91.41
2019-04-05T08:07:33.608Z,91.39
2019-04-05T08:10:03.099Z,91.25
2019-04-05T08:12:32.143Z,91.06
2019-04-05T08:15:01.461Z,91.19
2019-04-05T08:17:29.646Z,90.87
2019-04-05T08:20:00.455Z,90.84
2019-04-05T08:22:28.095Z,90.84
2019-04-05T08:24:55.714Z,90.88
2019-04-05T08:27:23.291Z,90.28
2019-04-05T08:29:51.072Z,89.17
2019-04-05T08:32:18.631Z,88.40
2019-04-05T08:34:46.272Z,88.99
2019-04-05T08:37:13.814Z,89.17
2019-04-05T08:39:42.713Z,89.37
2019-04-05T08:42:10.909Z,89.18
2019-04-05T08:44:38.931Z,89.69
2019-04-05T08:47:07.794Z,89.11
2019-04-05T08:49:36.120Z,88.87
2019-04-05T08:52:04.354Z,89.05
2019-04-05T08:54:36.307Z,88.51
2019-04-05T08:57:04.471Z,87.93
2019-04-05T08:59:32.332Z,88.70
2019-04-05T09:02:00.488Z,88.83
2019-04-05T09:04:28.611Z,88.89
2019-04-05T09:06:56.563Z,89.15
2019-04-05T09:09:30.208Z,89.23
2019-04-05T09:11:58.421Z,89.26
2019-04-05T09:14:26.398Z,89.25
2019-04-05T09:16:56.130Z,88.68
2019-04-05T09:19:24.286Z,88.86
2019-04-05T09:21:53.074Z,89.26
2019-04-05T09:24:20.752Z,88.84
2019-04-05T09:26:48.291Z,88.98
2019-04-05T09:29:15.952Z,89.63
2019-04-05T09:31:43.512Z,89.00
2019-04-05T09:34:11.372Z,88.38
2019-04-05T09:36:38.832Z,87.97
2019-04-05T09:39:13.653Z,88.49
2019-04-05T09:41:40.214Z,88.33
2019-04-05T09:44:07.672Z,87.76
2019-04-05T09:46:45.967Z,87.74
2019-04-05T09:49:05.016Z,87.70
2019-04-05T09:51:32.699Z,88.57
2019-04-05T09:54:00.254Z,88.54
2019-04-05T09:56:28.292Z,88.64
2019-04-05T09:58:55.873Z,88.75
2019-04-05T10:01:23.533Z,88.92
2019-04-05T10:03:51.194Z,88.35
2019-04-05T10:06:18.892Z,88.11
2019-04-05T10:08:46.417Z,88.39
2019-04-05T10:11:14.252Z,88.42
2019-04-05T10:13:43.611Z,88.26
2019-04-05T10:16:11.470Z,88.49
2019-04-05T10:18:39.232Z,87.93
2019-04-05T10:21:06.793Z,88.18
2019-04-05T10:23:34.392Z,87.89
2019-04-05T10:26:02.995Z,88.33
2019-04-05T10:28:30.652Z,88.61
2019-04-05T10:30:58.633Z,89.10
2019-04-05T10:33:26.311Z,88.53
2019-04-05T10:35:54.132Z,87.85
2019-04-05T10:38:21.791Z,87.97
2019-04-05T10:40:49.539Z,87.67
2019-04-05T10:43:17.113Z,87.76
2019-04-05T10:45:44.752Z,88.06
2019-04-05T10:48:12.311Z,88.25
2019-04-05T10:50:39.912Z,88.06
2019-04-05T10:53:07.512Z,87.68
2019-04-05T10:55:36.760Z,87.72
2019-04-05T10:58:04.992Z,87.68
2019-04-05T11:00:32.592Z,87.74
2019-04-05T11:03:00.377Z,87.93
2019-04-05T11:05:28.032Z,88.12
2019-04-05T11:07:55.613Z,87.77
2019-04-05T11:10:23.291Z,87.80
2019-04-05T11:12:50.912Z,87.99
2019-04-05T11:15:18.646Z,88.15
2019-04-05T11:17:47.248Z,88.09
2019-04-05T11:20:22.850Z,88.15
2019-04-05T11:22:46.690Z,88.55
2019-04-05T11:25:20.582Z,88.54
2019-04-05T11:27:48.032Z,88.85
2019-04-05T11:30:30.933Z,88.76
2019-04-05T11:32:58.871Z,88.55
2019-04-05T11:35:28.933Z,88.19
2019-04-05T11:37:59.631Z,88.80
2019-04-05T11:40:28.435Z,88.35
2019-04-05T11:42:58.406Z,88.40
2019-04-05T11:45:26.322Z,88.07
2019-04-05T11:47:57.708Z,88.49
2019-04-05T11:50:34.533Z,89.01
2019-04-05T11:53:01.415Z,88.34
2019-04-05T11:55:31.622Z,88.07
2019-04-05T11:57:59.512Z,87.16
2019-04-05T12:00:52.248Z,87.20
2019-04-05T12:03:20.713Z,86.51
2019-04-05T12:05:48.451Z,86.86
2019-04-05T12:08:16.272Z,86.73
2019-04-05T12:10:44.072Z,86.94
2019-04-05T12:13:11.832Z,86.62
2019-04-05T12:15:44.311Z,86.68
2019-04-05T12:18:16.705Z,86.67
2019-04-05T12:20:59.757Z,86.41
2019-04-05T12:23:22.052Z,86.85
2019-04-05T12:25:56.953Z,87.57
2019-04-05T12:28:24.614Z,87.49
2019-04-05T12:31:01.626Z,87.90
2019-04-05T12:33:30.426Z,87.87
2019-04-05T12:35:58.652Z,87.77
2019-04-05T12:38:31.551Z,87.53
2019-04-05T12:41:02.096Z,87.77
2019-04-05T12:43:31.194Z,86.92
2019-04-05T12:45:59.192Z,87.69
2019-04-05T12:48:26.932Z,87.14
2019-04-05T12:51:01.126Z,87.58
2019-04-05T12:53:26.285Z,86.88
2019-04-05T12:55:56.871Z,86.56
2019-04-05T12:58:25.852Z,86.71
2019-04-05T13:00:53.688Z,86.57
2019-04-05T13:03:23.131Z,87.39
2019-04-05T13:05:51.583Z,87.15
2019-04-05T13:08:23.744Z,87.21
2019-04-05T13:10:51.611Z,87.70
2019-04-05T13:13:19.392Z,87.41
2019-04-05T13:15:47.072Z,88.04
2019-04-05T13:18:14.772Z,88.42
2019-04-05T13:20:42.372Z,88.52
2019-04-05T13:23:11.291Z,87.92
2019-04-05T13:25:40.944Z,88.22
2019-04-05T13:28:13.492Z,87.62
2019-04-05T13:30:38.093Z,87.62
2019-04-05T13:33:05.792Z,87.94
2019-04-05T13:35:33.472Z,88.49
2019-04-05T13:38:01.424Z,88.19
2019-04-05T13:40:29.603Z,88.28
2019-04-05T13:43:01.693Z,88.63
2019-04-05T13:45:28.772Z,88.56
2019-04-05T13:47:56.452Z,88.53
2019-04-05T13:50:24.395Z,89.31
2019-04-05T13:52:52.132Z,88.89
2019-04-05T13:55:19.741Z,89.18
2019-04-05T13:57:47.472Z,89.19
2019-04-05T14:00:18.119Z,89.76
2019-04-05T14:02:46.212Z,89.05
2019-04-05T14:05:13.991Z,89.65
2019-04-05T14:07:42.053Z,89.73
2019-04-05T14:10:12.343Z,90.11
2019-04-05T14:12:40.117Z,90.40
2019-04-05T14:15:11.296Z,90.45
2019-04-05T14:17:38.933Z,90.56
2019-04-05T14:20:09.058Z,90.83
2019-04-05T14:22:36.622Z,91.58
2019-04-05T14:25:05.275Z,90.97
2019-04-05T14:27:35.140Z,90.91
2019-04-05T14:30:03.150Z,91.29
2019-04-05T14:32:31.311Z,91.77
2019-04-05T14:34:59.112Z,91.14
2019-04-05T14:37:28.232Z,91.50
2019-04-05T14:39:55.971Z,91.70
2019-04-05T14:45:21.492Z,92.32
2019-04-05T14:47:49.175Z,92.05
2019-04-05T14:50:17.134Z,92.11
2019-04-05T14:52:45.332Z,92.14
2019-04-05T14:55:13.216Z,92.80
2019-04-05T14:57:41.760Z,92.81
2019-04-05T15:00:14.585Z,92.73
2019-04-05T15:02:43.780Z,92.76
2019-04-05T15:05:10.677Z,92.48
2019-04-05T15:07:38.233Z,92.67
2019-04-05T15:10:07.983Z,92.98
2019-04-05T15:12:49.967Z,93.34
2019-04-05T15:15:18.752Z,93.11
2019-04-05T15:17:48.568Z,93.12
2019-04-05T15:20:17.575Z,93.34
2019-04-05T15:22:45.128Z,93.00
2019-04-05T15:25:16.665Z,93.20
2019-04-05T15:27:42.626Z,93.07
2019-04-05T15:30:10.277Z,93.33
2019-04-05T15:32:37.816Z,93.44
2019-04-05T15:35:05.966Z,93.25
2019-04-05T15:37:33.417Z,93.47
2019-04-05T15:40:01.131Z,93.42
2019-04-05T15:42:28.708Z,93.09
2019-04-05T15:44:56.351Z,93.55
2019-04-05T15:47:23.986Z,93.77
2019-04-05T15:49:52.031Z,93.52
2019-04-05T15:52:20.407Z,93.62
2019-04-05T15:54:48.424Z,93.77
2019-04-05T15:57:16.147Z,93.84
2019-04-05T15:59:45.079Z,94.07
2019-04-05T16:02:13.116Z,94.22
2019-04-05T16:04:40.861Z,94.27
2019-04-05T16:07:08.382Z,94.13
2019-04-05T16:09:36.066Z,93.89
2019-04-05T16:12:04.196Z,93.69
2019-04-05T16:14:34.243Z,93.50
2019-04-05T16:17:02.182Z,94.31
2019-04-05T16:19:29.694Z,94.67
2019-04-05T16:21:57.187Z,94.51
2019-04-05T16:24:24.706Z,94.68
2019-04-05T16:26:52.354Z,94.53
2019-04-05T16:29:20.178Z,94.30
2019-04-05T16:31:47.877Z,94.49
2019-04-05T16:34:16.707Z,94.47
2019-04-05T16:36:44.279Z,94.62
2019-04-05T16:39:14.763Z,94.86
2019-04-05T16:41:42.409Z,94.51
2019-04-05T16:44:10.031Z,94.65
2019-04-05T16:46:37.611Z,95.09
2019-04-05T16:49:05.263Z,95.16
2019-04-05T16:51:32.949Z,94.81
2019-04-05T16:54:01.619Z,94.50
2019-04-05T16:56:29.774Z,94.53
2019-04-05T16:58:57.752Z,94.45
2019-04-05T17:01:27.354Z,94.43
2019-04-05T17:03:55.011Z,94.53
2019-04-05T17:06:22.612Z,94.12
2019-04-05T17:08:50.277Z,93.84
2019-04-05T17:11:17.997Z,93.79
2019-04-05T17:13:45.921Z,93.98
2019-04-05T17:16:13.913Z,93.77
2019-04-05T17:18:41.572Z,93.57
2019-04-05T17:21:09.450Z,93.58
2019-04-05T17:23:37.627Z,93.48
2019-04-05T17:26:05.621Z,93.57
2019-04-05T17:28:33.731Z,93.94
2019-04-05T17:31:01.593Z,93.82
2019-04-05T17:33:30.462Z,93.58
2019-04-05T17:35:58.450Z,93.96
2019-04-05T17:38:26.260Z,94.15
2019-04-05T17:40:54.031Z,94.35
2019-04-05T17:43:21.847Z,94.16
2019-04-05T17:45:49.792Z,94.27
2019-04-05T17:48:17.717Z,94.42
2019-04-05T17:50:45.591Z,94.22
2019-04-05T17:53:13.634Z,94.32
2019-04-05T17:55:42.712Z,94.58
2019-04-05T17:58:10.667Z,94.65
2019-04-05T18:00:38.932Z,94.40
2019-04-05T18:03:07.016Z,94.23
2019-04-05T18:05:34.996Z,94.36
2019-04-05T18:08:02.957Z,94.11
2019-04-05T18:10:30.806Z,93.92
2019-04-05T18:12:59.821Z,93.63
2019-04-05T18:15:27.757Z,94.00
2019-04-05T18:17:55.467Z,94.27
2019-04-05T18:20:23.346Z,94.53
2019-04-05T18:22:51.143Z,94.63
2019-04-05T18:25:19.499Z,94.74
2019-04-05T18:27:47.426Z,94.77
2019-04-05T18:30:15.487Z,94.82
2019-04-05T18:32:43.451Z,94.79
2019-04-05T18:35:11.397Z,94.37
2019-04-05T18:37:39.353Z,94.54
2019-04-05T18:40:07.357Z,94.49
2019-04-05T18:42:35.332Z,94.33
2019-04-05T18:45:03.321Z,94.58
2019-04-05T18:47:31.352Z,94.76
2019-04-05T18:50:03.086Z,94.63
2019-04-05T18:52:29.487Z,94.57
2019-04-05T18:54:57.428Z,94.00
2019-04-05T18:57:25.267Z,94.37
2019-04-05T18:59:53.127Z,94.45
2019-04-05T19:02:21.106Z,94.10
2019-04-05T19:04:48.957Z,94.11
2019-04-05T19:07:17.012Z,94.46
2019-04-05T19:09:44.977Z,94.39
2019-04-05T19:12:14.357Z,94.22
2019-04-05T19:14:42.166Z,94.37
2019-04-05T19:17:23.188Z,94.27
2019-04-05T19:19:40.896Z,94.39
2019-04-05T19:22:08.786Z,94.65
2019-04-05T19:24:37.160Z,95.00
2019-04-05T19:27:05.142Z,95.30
2019-04-05T19:29:32.972Z,95.17
2019-04-05T19:49:29.489Z,96.13
2019-04-05T19:51:57.347Z,95.94
2019-04-05T19:54:26.494Z,95.80
2019-04-05T19:56:54.497Z,95.58
2019-04-05T19:59:23.392Z,95.50
2019-04-05T20:01:51.353Z,95.42
2019-04-05T20:04:19.346Z,95.54
2019-04-05T20:06:47.273Z,95.65
2019-04-05T20:09:16.502Z,95.88
2019-04-05T20:11:44.447Z,95.94
2019-04-05T20:14:13.346Z,95.83
2019-04-05T20:16:41.257Z,95.83
2019-04-05T20:19:09.169Z,95.67
2019-04-05T20:21:36.927Z,95.71
2019-04-05T20:24:13.677Z,95.45
2019-04-05T20:26:34.588Z,95.37
2019-04-05T20:29:02.295Z,95.12
2019-04-05T20:31:30.526Z,94.81
2019-04-05T20:33:59.486Z,94.86
2019-04-05T20:36:27.247Z,95.04
2019-04-05T20:38:55.166Z,95.03
2019-04-05T20:41:22.829Z,95.42
2019-04-05T20:43:51.821Z,95.50
2019-04-05T20:46:19.597Z,95.67
2019-04-05T20:48:47.346Z,95.77
2019-04-05T20:51:15.143Z,95.58
2019-04-05T20:53:42.767Z,95.26
2019-04-05T20:56:10.451Z,95.51
2019-04-05T20:58:38.147Z,95.50
2019-04-05T21:01:05.762Z,95.58
2019-04-05T21:03:33.257Z,95.54
2019-04-05T21:06:00.761Z,95.37
2019-04-05T21:08:29.335Z,95.35
2019-04-05T21:10:58.874Z,95.61
2019-04-05T21:13:26.163Z,95.59
2019-04-05T21:15:53.954Z,95.72
2019-04-05T21:18:22.017Z,96.12
2019-04-05T21:20:49.487Z,96.16
2019-04-05T21:23:17.001Z,96.09
2019-04-05T21:25:44.931Z,96.24
2019-04-05T21:28:12.601Z,96.40
2019-04-05T21:30:40.202Z,96.42
2019-04-05T21:33:07.682Z,96.57
2019-04-05T21:35:35.576Z,96.51
2019-04-05T21:38:03.532Z,96.30
2019-04-05T21:40:34.196Z,96.00
2019-04-05T21:43:02.080Z,96.00
2019-04-05T21:45:32.014Z,96.04
2019-04-05T21:48:01.689Z,96.10
2019-04-05T21:50:31.883Z,96.43
2019-04-05T21:52:59.661Z,96.34
2019-04-05T21:55:28.171Z,96.41
2019-04-05T21:57:55.874Z,96.44
2019-04-05T22:00:26.098Z,96.49
2019-04-05T22:02:55.820Z,96.34
2019-04-05T22:05:23.872Z,96.53
2019-04-05T22:07:51.700Z,96.60
2019-04-05T22:10:20.394Z,96.40
2019-04-05T22:12:47.910Z,96.54
2019-04-05T22:15:16.426Z,96.60
2019-04-05T22:17:48.088Z,96.60
2019-04-05T22:20:18.418Z,96.42
2019-04-05T22:22:48.147Z,96.45
2019-04-05T22:25:15.579Z,96.47
2019-04-05T22:27:44.076Z,96.47
2019-04-05T22:30:12.782Z,96.59
2019-04-05T22:32:40.227Z,96.86
2019-04-05T22:35:08.927Z,97.07
2019-04-05T22:37:36.331Z,96.93
2019-04-05T22:40:04.472Z,97.02
2019-04-05T22:42:31.874Z,97.10
2019-04-05T22:44:59.322Z,97.23
2019-04-05T22:47:26.711Z,97.20
2019-04-05T22:49:54.172Z,97.41
2019-04-05T22:52:21.596Z,97.42
2019-04-05T22:54:49.027Z,97.53
2019-04-05T22:57:16.397Z,97.20
2019-04-05T22:59:43.842Z,97.24
2019-04-05T23:02:11.777Z,97.13
2019-04-05T23:04:39.292Z,97.25
2019-04-05T23:07:06.752Z,97.50
2019-04-05T23:09:34.208Z,97.57
2019-04-05T23:12:01.607Z,97.75
2019-04-05T23:14:29.054Z,97.66
2019-04-05T23:16:56.416Z,97.77
2019-04-05T23:19:23.906Z,98.00
2019-04-05T23:21:51.297Z,97.95
2019-04-05T23:24:18.722Z,97.98
2019-04-05T23:26:46.117Z,97.92
2019-04-05T23:29:13.573Z,97.86
2019-04-05T23:31:40.967Z,97.84
2019-04-05T23:34:10.720Z,97.54
2019-04-05T23:36:38.167Z,97.37
2019-04-05T23:39:06.227Z,97.25
2019-04-05T23:41:33.618Z,97.02
2019-04-05T23:44:01.080Z,96.75
2019-04-05T23:46:28.462Z,96.56
2019-04-05T23:48:55.911Z,96.49
2019-04-05T23:51:23.332Z,96.33
2019-04-05T23:53:51.247Z,96.21
2019-04-05T23:56:18.736Z,96.28
2019-04-05T23:58:46.107Z,96.12
